CST,Max TemperatureF,Mean TemperatureF,Min TemperatureF,Max Dew PointF,MeanDew PointF,Min DewpointF,Max Humidity, Mean Humidity, Min Humidity, Max Sea Level PressureIn, Mean Sea Level PressureIn, Min Sea Level PressureIn, Max VisibilityMiles, Mean VisibilityMiles, Min VisibilityMiles, Max Wind SpeedMPH, Mean Wind SpeedMPH, Max Gust SpeedMPH,PrecipitationIn, CloudCover, Events, WindDirDegrees
2013-1-1,15,0,-14,12,-5,-22,86,77,67,30.24,30.14,30.00,10,10,4,8,2,,0.00,5,Snow,207
2013-1-2,19,18,17,18,15,14,93,87,80,30.05,29.97,29.92,10,6,2,10,6,,0.00,8,Snow,191
2013-1-3,21,16,12,19,9,3,93,77,58,30.22,30.13,30.00,10,9,1,14,8,20,0.00,4,Snow,273
2013-1-4,32,18,5,18,10,1,92,77,55,30.10,30.04,29.96,10,10,10,9,4,,0.00,0,,222
2013-1-5,23,12,0,18,8,-4,93,82,63,30.09,29.95,29.84,10,10,7,10,1,16,0.00,1,,328
2013-1-6,23,18,12,16,8,5,86,70,50,30.19,30.11,29.98,10,10,10,12,7,16,0.00,1,,275
2013-1-7,35,24,14,25,18,10,93,76,60,29.97,29.87,29.81,10,10,4,10,6,,0.00,1,,212
2013-1-8,33,19,5,27,17,1,93,83,69,29.97,29.85,29.71,10,8,0,13,2,20,0.00,5,Fog,189
2013-1-9,32,23,14,27,19,10,93,72,60,30.32,30.13,29.83,10,10,10,22,9,34,0.00,2,,251
2013-1-10,37,26,15,30,22,12,93,72,48,30.28,30.08,29.72,10,9,2,12,6,17,0.17,3,Rain,149
2013-1-11,35,34,32,34,32,30,100,96,93,29.72,29.51,29.33,3,2,0,13,6,18,0.02,8,Fog-Rain,156
2013-1-12,35,20,6,34,11,0,100,78,67,30.05,29.76,29.33,10,9,2,17,11,25,0.00,8,Snow,257
2013-1-13,10,6,1,1,-1,-4,79,75,62,30.18,30.09,30.02,10,9,2,12,6,,0.00,4,Snow,294
2013-1-14,12,6,0,3,-1,-6,85,73,57,30.37,30.29,30.19,10,10,5,10,4,,0.00,3,Snow,235
2013-1-15,26,16,5,14,8,1,85,72,54,30.24,30.07,29.76,10,10,10,14,5,20,0.00,3,Snow,205
2013-1-16,32,19,6,27,12,-4,93,66,42,30.24,29.84,29.59,10,9,4,18,11,26,0.00,5,Snow,293
2013-1-17,17,9,1,5,-1,-8,85,64,52,30.36,30.32,30.25,10,9,2,9,5,,0.00,6,Snow,294
2013-1-18,32,21,10,23,14,5,93,81,69,30.25,29.88,29.70,10,8,2,9,2,,0.02,5,Snow,125
2013-1-19,33,18,1,28,11,-6,93,76,52,30.17,29.82,29.66,10,8,0,31,7,40,0.00,3,Snow,301
2013-1-20,5,0,-5,-4,-9,-15,78,67,56,30.36,30.27,30.18,10,10,5,17,9,24,0.00,3,,292
2013-1-21,-4,-8,-13,-13,-19,-24,77,60,50,30.30,30.25,30.22,10,10,5,15,8,17,0.00,2,,288
2013-1-22,0,-8,-16,-9,-17,-24,78,66,51,30.36,30.29,30.21,10,10,10,9,4,,0.00,1,,246
2013-1-23,12,2,-9,3,-8,-20,79,62,43,30.61,30.28,30.12,10,10,5,26,6,34,0.00,4,,311
2013-1-24,8,0,-9,0,-12,-20,67,62,55,30.66,30.48,30.14,10,10,7,10,3,,0.00,4,Snow,136
2013-1-25,17,9,1,9,3,-6,79,67,53,30.29,30.05,29.88,10,9,3,18,9,26,0.00,5,Snow,288
2013-1-26,17,6,-5,9,-1,-11,85,71,57,30.33,30.24,30.13,10,10,10,10,2,,0.00,4,,126
2013-1-27,32,24,17,28,19,9,100,77,60,30.12,29.95,29.82,10,7,1,9,4,,0.07,5,Snow,103
2013-1-28,32,26,21,30,28,21,100,95,93,29.89,29.82,29.66,4,2,0,7,2,,0.01,8,Fog-Snow,129
2013-1-29,33,28,23,30,26,18,93,85,74,29.77,29.65,29.53,10,8,2,16,5,23,0.03,8,Snow,336
2013-1-30,23,16,8,18,8,1,86,73,67,29.75,29.69,29.65,10,10,2,21,12,26,0.00,8,Snow,331
2013-1-31,8,0,-9,1,-8,-20,79,65,56,30.22,29.97,29.72,10,8,3,22,12,26,0.00,5,Snow,309